createdAt,value
2023-04-16T00:00:03.358Z,94.67
2023-04-16T00:02:58.890Z,94.60
2023-04-16T00:05:27.546Z,94.68
2023-04-16T00:07:55.236Z,94.79
2023-04-16T00:10:22.941Z,94.79
2023-04-16T00:12:50.690Z,94.86
2023-04-16T00:15:18.399Z,94.82
2023-04-16T00:17:46.433Z,94.72
2023-04-16T00:20:14.236Z,94.78
2023-04-16T00:22:41.884Z,94.92
2023-04-16T00:25:09.663Z,94.90
2023-04-16T00:27:37.333Z,94.97
2023-04-16T00:30:05.959Z,94.98
2023-04-16T00:32:33.812Z,94.81
2023-04-16T00:35:01.583Z,94.76
2023-04-16T00:37:30.301Z,94.73
2023-04-16T00:39:58.055Z,94.68
2023-04-16T00:42:25.878Z,94.64
2023-04-16T00:44:53.647Z,94.66
2023-04-16T00:47:21.738Z,94.80
2023-04-16T00:49:50.153Z,94.88
2023-04-16T00:52:17.846Z,94.94
2023-04-16T00:54:46.027Z,94.94
2023-04-16T00:57:14.443Z,94.98
2023-04-16T00:59:42.246Z,95.01
2023-04-16T01:02:09.965Z,94.96
2023-04-16T01:04:37.959Z,94.92
2023-04-16T01:07:06.025Z,94.98
2023-04-16T01:09:33.766Z,95.09
2023-04-16T01:12:02.043Z,94.99
2023-04-16T01:14:31.646Z,95.05
2023-04-16T01:16:59.353Z,94.97
2023-04-16T01:19:27.089Z,95.02
2023-04-16T01:21:54.831Z,94.95
2023-04-16T01:24:22.430Z,94.98
2023-04-16T01:26:50.256Z,95.14
2023-04-16T01:29:18.040Z,95.01
2023-04-16T01:31:46.919Z,95.13
2023-04-16T01:34:24.098Z,95.00
2023-04-16T01:36:51.845Z,94.90
2023-04-16T01:39:19.640Z,94.94
2023-04-16T01:41:47.346Z,95.04
2023-04-16T01:44:15.054Z,94.98
2023-04-16T01:46:44.148Z,95.10
2023-04-16T01:49:12.285Z,95.18
2023-04-16T01:51:39.947Z,95.09
2023-04-16T01:54:07.961Z,95.00
2023-04-16T01:56:35.769Z,95.10
2023-04-16T01:59:03.611Z,95.06
2023-04-16T02:01:36.186Z,95.09
2023-04-16T02:04:04.286Z,95.20
2023-04-16T02:06:32.082Z,95.21
2023-04-16T02:08:59.771Z,95.27
2023-04-16T02:11:27.412Z,95.23
2023-04-16T02:13:56.303Z,95.32
2023-04-16T02:16:24.352Z,95.34
2023-04-16T02:19:01.812Z,95.21
2023-04-16T02:21:31.615Z,95.04
2023-04-16T02:23:59.475Z,95.26
2023-04-16T02:26:29.636Z,95.05
2023-04-16T02:29:00.550Z,95.21
2023-04-16T02:31:33.756Z,95.24
2023-04-16T02:34:01.753Z,95.07
2023-04-16T02:36:29.680Z,95.16
2023-04-16T02:38:57.899Z,95.15
2023-04-16T02:41:25.733Z,95.06
2023-04-16T02:43:53.453Z,95.17
2023-04-16T02:46:21.126Z,95.25
2023-04-16T02:48:49.008Z,95.37
2023-04-16T02:51:16.722Z,95.38
2023-04-16T02:53:46.093Z,95.30
2023-04-16T02:56:14.268Z,95.44
2023-04-16T02:58:42.227Z,95.47
2023-04-16T03:01:09.931Z,95.37
2023-04-16T03:03:37.867Z,95.41
2023-04-16T03:06:05.670Z,95.52
2023-04-16T03:08:33.497Z,95.32
2023-04-16T03:11:01.487Z,95.39
2023-04-16T03:13:29.261Z,95.32
2023-04-16T03:15:57.454Z,95.11
2023-04-16T03:18:25.309Z,95.09
2023-04-16T03:20:53.737Z,95.16
2023-04-16T03:23:21.469Z,95.27
2023-04-16T03:25:49.212Z,95.39
2023-04-16T03:28:18.904Z,95.23
2023-04-16T03:30:50.777Z,95.34
2023-04-16T03:33:18.866Z,95.36
2023-04-16T03:35:46.539Z,95.61
2023-04-16T03:38:14.763Z,95.73
2023-04-16T03:40:42.536Z,95.74
2023-04-16T03:43:10.493Z,95.84
2023-04-16T03:45:43.582Z,95.71
2023-04-16T03:48:12.047Z,95.48
2023-04-16T03:50:39.745Z,95.58
2023-04-16T03:53:08.803Z,95.68
2023-04-16T03:55:36.910Z,95.68
2023-04-16T03:58:04.973Z,95.60
2023-04-16T04:00:33.080Z,95.82
2023-04-16T04:03:06.638Z,95.78
2023-04-16T04:05:41.706Z,95.80
2023-04-16T04:08:11.203Z,95.60
2023-04-16T04:10:39.189Z,95.59
2023-04-16T04:13:07.327Z,95.66
2023-04-16T04:15:35.432Z,95.68
2023-04-16T04:18:03.231Z,95.82
2023-04-16T04:20:31.291Z,95.97
2023-04-16T04:22:59.324Z,96.13
2023-04-16T04:25:27.249Z,95.93
2023-04-16T04:27:55.293Z,96.12
2023-04-16T04:30:23.235Z,96.08
2023-04-16T04:32:51.006Z,95.94
2023-04-16T04:35:18.721Z,96.09
2023-04-16T04:37:48.866Z,96.46
2023-04-16T04:40:19.460Z,96.37
2023-04-16T04:42:47.454Z,96.21
2023-04-16T04:45:16.488Z,96.34
2023-04-16T04:47:44.196Z,96.41
2023-04-16T04:50:11.995Z,96.38
2023-04-16T04:52:39.697Z,96.39
2023-04-16T04:55:08.220Z,96.36
2023-04-16T04:57:36.699Z,96.28
2023-04-16T05:00:06.257Z,96.30
2023-04-16T05:02:41.071Z,96.42
2023-04-16T05:05:08.943Z,96.44
2023-04-16T05:07:36.816Z,96.41
2023-04-16T05:10:04.652Z,96.36
2023-04-16T05:12:32.281Z,96.43
2023-04-16T05:14:59.938Z,96.40
2023-04-16T05:17:27.689Z,96.56
2023-04-16T05:19:55.547Z,96.46
2023-04-16T05:22:23.247Z,96.43
2023-04-16T05:24:50.915Z,96.28
2023-04-16T05:27:18.600Z,96.22
2023-04-16T05:29:46.269Z,95.99
2023-04-16T05:32:13.997Z,95.88
2023-04-16T05:34:41.714Z,95.97
2023-04-16T05:37:09.337Z,96.11
2023-04-16T05:39:37.042Z,96.05
2023-04-16T05:42:04.676Z,96.11
2023-04-16T05:44:32.352Z,95.93
2023-04-16T05:47:00.172Z,95.66
2023-04-16T05:49:27.894Z,95.66
2023-04-16T05:51:55.656Z,95.70
2023-04-16T05:54:24.168Z,95.62
2023-04-16T05:56:51.878Z,95.51
2023-04-16T05:59:19.603Z,95.43
2023-04-16T06:01:47.301Z,95.39
2023-04-16T06:04:15.071Z,95.35
2023-04-16T06:06:42.960Z,95.29
2023-04-16T06:09:11.228Z,95.37
2023-04-16T06:11:39.284Z,95.35
2023-04-16T06:14:07.066Z,95.39
2023-04-16T06:16:34.704Z,95.56
2023-04-16T06:19:02.392Z,95.33
2023-04-16T06:21:31.646Z,95.32
2023-04-16T06:23:59.463Z,95.31
2023-04-16T06:26:27.163Z,95.30
2023-04-16T06:28:54.852Z,95.48
2023-04-16T06:31:22.669Z,95.33
2023-04-16T06:33:50.507Z,95.21
2023-04-16T06:36:18.328Z,95.27
2023-04-16T06:38:46.522Z,95.47
2023-04-16T06:41:14.617Z,95.47
2023-04-16T06:43:42.286Z,95.38
2023-04-16T06:46:10.339Z,95.49
2023-04-16T06:48:38.038Z,95.28
2023-04-16T06:51:05.763Z,95.55
2023-04-16T06:53:33.699Z,95.46
2023-04-16T06:56:01.439Z,94.98
2023-04-16T06:58:29.347Z,95.06
2023-04-16T07:00:57.211Z,95.28
2023-04-16T07:03:25.050Z,95.00
2023-04-16T07:05:53.094Z,95.07
2023-04-16T07:08:21.019Z,95.21
2023-04-16T07:10:48.781Z,95.11
2023-04-16T07:13:18.520Z,95.18
2023-04-16T07:15:46.196Z,95.32
2023-04-16T07:18:14.229Z,95.47
2023-04-16T07:20:42.590Z,95.44
2023-04-16T07:23:10.527Z,95.19
2023-04-16T07:25:38.236Z,95.18
2023-04-16T07:28:05.989Z,95.19
2023-04-16T07:30:34.486Z,95.09
2023-04-16T07:33:03.088Z,94.97
2023-04-16T07:35:31.155Z,94.92
2023-04-16T07:37:58.879Z,94.68
2023-04-16T07:40:26.551Z,94.81
2023-04-16T07:42:55.112Z,94.72
2023-04-16T07:45:23.677Z,94.70
2023-04-16T07:47:51.380Z,94.79
2023-04-16T07:50:19.478Z,94.99
2023-04-16T07:52:47.340Z,95.10
2023-04-16T07:55:15.330Z,95.23
2023-04-16T07:57:42.966Z,95.39
2023-04-16T08:00:11.381Z,95.35
2023-04-16T08:02:42.177Z,95.29
2023-04-16T08:05:11.202Z,95.21
2023-04-16T08:07:39.119Z,95.01
2023-04-16T08:10:07.344Z,94.93
2023-04-16T08:12:35.248Z,94.80
2023-04-16T08:15:03.651Z,94.49
2023-04-16T08:17:33.108Z,94.42
2023-04-16T08:20:01.670Z,94.24
2023-04-16T08:22:29.316Z,94.45
2023-04-16T08:24:57.333Z,94.22
2023-04-16T08:27:25.015Z,94.28
2023-04-16T08:29:52.642Z,94.11
2023-04-16T08:32:20.752Z,93.97
2023-04-16T08:34:48.671Z,93.80
2023-04-16T08:37:16.377Z,93.53
2023-04-16T08:39:44.012Z,93.54
2023-04-16T08:42:16.852Z,93.20
2023-04-16T08:44:49.273Z,93.21
2023-04-16T08:47:17.566Z,93.24
2023-04-16T08:49:48.718Z,93.23
2023-04-16T08:52:19.753Z,93.02
2023-04-16T08:55:03.581Z,92.78
2023-04-16T08:57:37.474Z,92.36
2023-04-16T09:00:07.431Z,92.17
2023-04-16T09:02:36.079Z,92.03
2023-04-16T09:05:06.520Z,91.93
2023-04-16T09:07:35.399Z,91.88
2023-04-16T09:10:03.355Z,91.72
2023-04-16T09:12:31.649Z,91.45
2023-04-16T09:15:01.067Z,91.13
2023-04-16T09:17:28.874Z,91.07
2023-04-16T09:19:56.737Z,91.12
2023-04-16T09:22:24.571Z,90.83
2023-04-16T09:24:52.250Z,90.59
2023-04-16T09:27:20.435Z,90.53
2023-04-16T09:29:49.706Z,90.08
2023-04-16T09:32:17.624Z,89.74
2023-04-16T09:34:55.882Z,89.98
2023-04-16T09:37:23.748Z,89.60
2023-04-16T09:40:08.387Z,89.53
2023-04-16T09:42:37.120Z,89.78
2023-04-16T09:45:06.189Z,89.44
2023-04-16T09:47:41.567Z,89.34
2023-04-16T09:50:12.496Z,88.96
2023-04-16T09:52:43.147Z,88.65
2023-04-16T09:55:11.096Z,88.63
2023-04-16T09:57:38.967Z,88.51
2023-04-16T10:00:09.100Z,88.16
2023-04-16T10:02:41.488Z,88.20
2023-04-16T10:05:09.693Z,88.28
2023-04-16T10:07:37.784Z,88.18
2023-04-16T10:10:05.745Z,88.48
2023-04-16T10:12:33.736Z,88.04
2023-04-16T10:15:01.799Z,87.82
2023-04-16T10:17:31.003Z,87.61
2023-04-16T10:19:59.900Z,87.42
2023-04-16T10:22:27.639Z,87.28
2023-04-16T10:24:55.545Z,87.10
2023-04-16T10:27:23.385Z,86.77
2023-04-16T10:29:51.464Z,86.73
2023-04-16T10:32:21.727Z,86.77
2023-04-16T10:34:49.559Z,86.79
2023-04-16T10:37:18.572Z,86.81
2023-04-16T10:39:46.286Z,86.30
2023-04-16T10:42:14.190Z,86.36
2023-04-16T10:44:45.060Z,86.03
2023-04-16T10:47:13.802Z,86.28
2023-04-16T10:49:42.589Z,86.02
2023-04-16T10:52:16.837Z,86.03
2023-04-16T10:54:46.337Z,86.15
2023-04-16T10:57:18.187Z,86.39
2023-04-16T10:59:46.365Z,86.60
2023-04-16T11:02:16.097Z,86.55
2023-04-16T11:04:45.533Z,86.57
2023-04-16T11:07:16.625Z,86.27
2023-04-16T11:09:51.169Z,86.33
2023-04-16T11:12:39.133Z,86.26
2023-04-16T11:15:13.610Z,86.35
2023-04-16T11:17:45.610Z,86.49
2023-04-16T11:20:31.379Z,86.37
2023-04-16T11:22:59.145Z,86.28
2023-04-16T11:25:29.764Z,86.35
2023-04-16T11:27:59.004Z,86.36
2023-04-16T11:30:30.908Z,86.11
2023-04-16T11:32:58.722Z,86.10
2023-04-16T11:35:27.160Z,86.13
2023-04-16T11:37:58.470Z,86.03
2023-04-16T11:40:29.755Z,86.28
2023-04-16T11:43:02.043Z,86.25
2023-04-16T11:45:29.811Z,86.19
2023-04-16T11:47:57.759Z,86.07
2023-04-16T11:50:27.199Z,86.25
2023-04-16T11:52:56.584Z,86.16
2023-04-16T11:55:24.743Z,86.23
2023-04-16T11:57:52.491Z,85.83
2023-04-16T12:00:23.142Z,86.06
2023-04-16T12:02:53.777Z,86.01
2023-04-16T12:05:38.863Z,86.09
2023-04-16T12:08:10.749Z,86.02
2023-04-16T12:10:52.931Z,85.88
2023-04-16T12:13:21.118Z,86.24
2023-04-16T12:15:48.798Z,86.26
2023-04-16T12:18:17.236Z,86.30
2023-04-16T12:20:45.271Z,86.39
2023-04-16T12:23:28.987Z,86.19
2023-04-16T12:26:02.264Z,86.04
2023-04-16T12:28:34.196Z,86.23
2023-04-16T12:31:02.603Z,86.05
2023-04-16T12:33:30.961Z,86.11
2023-04-16T12:35:58.699Z,86.11
2023-04-16T12:38:27.060Z,86.33
2023-04-16T12:40:57.356Z,86.48
2023-04-16T12:43:25.604Z,86.58
2023-04-16T12:45:53.444Z,86.30
2023-04-16T12:48:21.289Z,86.25
2023-04-16T12:50:48.965Z,86.53
2023-04-16T12:53:16.877Z,86.60
2023-04-16T12:55:45.358Z,86.38
2023-04-16T12:58:13.158Z,86.15
2023-04-16T13:00:40.857Z,86.60
2023-04-16T13:03:08.662Z,86.69
2023-04-16T13:05:36.485Z,86.60
2023-04-16T13:08:04.213Z,86.63
2023-04-16T13:10:31.913Z,86.96
2023-04-16T13:12:59.608Z,86.79
2023-04-16T13:15:27.344Z,86.72
2023-04-16T13:17:55.206Z,86.68
2023-04-16T13:20:24.534Z,86.75
2023-04-16T13:22:52.447Z,86.89
2023-04-16T13:25:20.398Z,86.77
2023-04-16T13:27:48.046Z,86.51
2023-04-16T13:30:17.324Z,86.42
2023-04-16T13:32:45.453Z,86.40
2023-04-16T13:35:13.179Z,86.51
2023-04-16T13:37:40.864Z,86.61
2023-04-16T13:40:08.986Z,86.49
2023-04-16T13:42:36.839Z,86.44
2023-04-16T13:45:04.775Z,86.52
2023-04-16T13:47:32.563Z,86.47
2023-04-16T13:50:00.919Z,86.31
2023-04-16T13:52:28.566Z,86.09
2023-04-16T13:54:57.841Z,86.03
2023-04-16T13:57:28.318Z,85.84
2023-04-16T13:59:56.286Z,85.91
2023-04-16T14:02:25.912Z,85.93
2023-04-16T14:04:54.065Z,86.01
2023-04-16T14:07:25.563Z,85.78
2023-04-16T14:09:53.704Z,85.63
2023-04-16T14:12:21.424Z,85.55
2023-04-16T14:14:49.131Z,85.65
2023-04-16T14:17:16.783Z,85.73
2023-04-16T14:19:44.507Z,85.76
2023-04-16T14:22:12.202Z,85.89
2023-04-16T14:24:39.857Z,85.96
2023-04-16T14:27:08.053Z,85.82
2023-04-16T14:29:36.449Z,85.89
2023-04-16T14:32:04.580Z,86.06
2023-04-16T14:34:32.444Z,86.34
2023-04-16T14:37:00.171Z,86.34
2023-04-16T14:39:27.857Z,86.48
2023-04-16T14:41:55.758Z,86.52
2023-04-16T14:44:23.443Z,86.63
2023-04-16T14:46:51.455Z,86.59
2023-04-16T14:49:19.134Z,86.49
2023-04-16T14:51:47.031Z,86.35
2023-04-16T14:54:14.760Z,86.48
2023-04-16T14:56:42.787Z,86.18
2023-04-16T14:59:11.124Z,86.20
2023-04-16T15:01:42.283Z,86.36
2023-04-16T15:04:10.256Z,86.36
2023-04-16T15:06:38.396Z,86.30
2023-04-16T15:09:07.422Z,86.22
2023-04-16T15:11:35.316Z,86.37
2023-04-16T15:14:03.056Z,86.29
2023-04-16T15:16:30.896Z,85.96
2023-04-16T15:18:58.666Z,85.90
2023-04-16T15:21:27.916Z,85.87
2023-04-16T15:23:55.661Z,85.93
2023-04-16T15:26:23.357Z,86.04
2023-04-16T15:28:51.285Z,85.87
2023-04-16T15:31:20.777Z,85.73
2023-04-16T15:33:48.766Z,86.00
2023-04-16T15:36:16.494Z,85.67
2023-04-16T15:38:44.207Z,85.99
2023-04-16T15:41:12.002Z,86.15
2023-04-16T15:43:39.722Z,86.35
2023-04-16T15:46:08.590Z,86.52
2023-04-16T15:48:36.377Z,86.62
2023-04-16T15:51:04.126Z,86.62
2023-04-16T15:53:31.852Z,86.72
2023-04-16T15:56:00.100Z,87.21
2023-04-16T15:58:27.816Z,87.56
2023-04-16T16:00:55.537Z,87.60
2023-04-16T16:03:23.536Z,87.50
2023-04-16T16:05:51.430Z,87.86
2023-04-16T16:08:19.082Z,88.09
2023-04-16T16:10:46.846Z,87.86
2023-04-16T16:13:18.057Z,87.58
2023-04-16T16:15:46.261Z,87.83
2023-04-16T16:18:14.007Z,88.12
2023-04-16T16:20:41.791Z,87.91
2023-04-16T16:23:09.705Z,88.15
2023-04-16T16:25:37.598Z,87.88
2023-04-16T16:28:06.691Z,87.80
2023-04-16T16:30:34.957Z,87.72
2023-04-16T16:33:02.666Z,87.77
2023-04-16T16:35:31.091Z,87.70
2023-04-16T16:37:59.409Z,87.75
2023-04-16T16:40:27.596Z,87.73
2023-04-16T16:42:55.666Z,87.73
2023-04-16T16:45:25.970Z,87.79
2023-04-16T16:47:54.647Z,87.80
2023-04-16T16:50:22.608Z,87.99
2023-04-16T16:52:50.379Z,87.93
2023-04-16T16:55:18.952Z,88.04
2023-04-16T16:57:46.871Z,88.14
2023-04-16T17:00:16.093Z,88.13
2023-04-16T17:02:44.430Z,88.44
2023-04-16T17:05:12.612Z,88.62
2023-04-16T17:07:40.493Z,88.73
2023-04-16T17:10:10.993Z,88.93
2023-04-16T17:12:38.729Z,88.88
2023-04-16T17:15:06.762Z,88.92
2023-04-16T17:17:34.592Z,89.00
2023-04-16T17:20:08.008Z,89.05
2023-04-16T17:22:36.299Z,89.16
2023-04-16T17:25:04.506Z,89.14
2023-04-16T17:27:34.306Z,89.17
2023-04-16T17:30:03.003Z,89.23
2023-04-16T17:32:32.540Z,89.32
2023-04-16T17:35:01.760Z,89.29
2023-04-16T17:37:29.465Z,89.33
2023-04-16T17:39:57.096Z,89.49
2023-04-16T17:42:24.862Z,89.59
2023-04-16T17:44:53.149Z,89.50
2023-04-16T17:47:20.913Z,89.57
2023-04-16T17:49:48.746Z,89.76
2023-04-16T17:52:16.476Z,89.93
2023-04-16T17:54:44.791Z,89.86
2023-04-16T17:57:12.306Z,89.97
2023-04-16T17:59:40.106Z,89.99
2023-04-16T18:02:07.841Z,89.94
2023-04-16T18:04:36.051Z,89.98
2023-04-16T18:07:03.971Z,89.98
2023-04-16T18:09:32.017Z,90.00
2023-04-16T18:11:59.750Z,90.21
2023-04-16T18:14:27.550Z,90.39
2023-04-16T18:16:55.258Z,90.46
2023-04-16T18:19:22.999Z,90.63
2023-04-16T18:21:50.736Z,90.61
2023-04-16T18:24:18.542Z,90.80
2023-04-16T18:26:47.118Z,90.68
2023-04-16T18:29:15.372Z,90.68
2023-04-16T18:31:44.116Z,90.71
2023-04-16T18:34:12.571Z,90.77
2023-04-16T18:36:40.791Z,90.81
2023-04-16T18:39:08.872Z,90.93
2023-04-16T18:41:37.165Z,90.91
2023-04-16T18:44:04.921Z,90.99
2023-04-16T18:46:32.735Z,91.15
2023-04-16T18:49:00.596Z,91.23
2023-04-16T18:51:28.463Z,91.29
2023-04-16T18:53:56.332Z,91.45
2023-04-16T18:56:24.339Z,91.43
2023-04-16T18:58:52.250Z,91.39
2023-04-16T19:01:20.457Z,91.50
2023-04-16T19:03:48.365Z,91.52
2023-04-16T19:06:16.253Z,91.50
2023-04-16T19:08:44.055Z,91.46
2023-04-16T19:11:11.785Z,91.53
2023-04-16T19:13:39.745Z,91.58
2023-04-16T19:16:11.386Z,91.64
2023-04-16T19:18:39.825Z,91.48
2023-04-16T19:21:07.855Z,91.38
2023-04-16T19:23:35.579Z,91.51
2023-04-16T19:26:03.628Z,91.48
2023-04-16T19:28:31.762Z,91.75
2023-04-16T19:30:59.467Z,92.12
2023-04-16T19:33:27.139Z,92.40
2023-04-16T19:35:54.952Z,92.66
2023-04-16T19:38:22.613Z,92.76
2023-04-16T19:40:50.701Z,92.73
2023-04-16T19:43:18.376Z,93.06
2023-04-16T19:45:46.768Z,93.23
2023-04-16T19:48:14.638Z,93.26
2023-04-16T19:50:42.544Z,93.43
2023-04-16T19:53:11.263Z,93.60
2023-04-16T19:55:39.472Z,93.78
2023-04-16T19:58:07.615Z,93.89
2023-04-16T20:00:40.668Z,93.84
2023-04-16T20:03:08.711Z,94.00
2023-04-16T20:05:36.594Z,94.11
2023-04-16T20:08:04.593Z,94.08
2023-04-16T20:10:32.252Z,94.03
2023-04-16T20:13:00.007Z,94.16
2023-04-16T20:15:27.846Z,94.00
2023-04-16T20:17:56.418Z,94.01
2023-04-16T20:20:24.348Z,93.90
2023-04-16T20:22:52.042Z,93.85
2023-04-16T20:25:20.430Z,93.81
2023-04-16T20:27:48.164Z,93.90
2023-04-16T20:30:16.246Z,93.86
2023-04-16T20:32:44.178Z,93.80
2023-04-16T20:35:12.032Z,93.91
2023-04-16T20:37:42.030Z,93.97
2023-04-16T20:40:10.973Z,93.92
2023-04-16T20:42:40.802Z,93.92
2023-04-16T20:45:08.962Z,94.07
2023-04-16T20:47:36.632Z,94.26
2023-04-16T20:50:04.652Z,94.43
2023-04-16T20:52:32.593Z,94.19
2023-04-16T20:55:00.691Z,94.12
2023-04-16T20:57:29.660Z,94.13
2023-04-16T20:59:58.453Z,93.97
2023-04-16T21:02:28.013Z,94.00
2023-04-16T21:04:56.329Z,94.40
2023-04-16T21:07:24.242Z,94.49
2023-04-16T21:09:51.945Z,94.61
2023-04-16T21:12:19.590Z,94.67
2023-04-16T21:14:47.301Z,94.57
2023-04-16T21:17:14.987Z,94.70
2023-04-16T21:19:42.667Z,94.55
2023-04-16T21:22:10.504Z,94.44
2023-04-16T21:24:38.231Z,94.40
2023-04-16T21:27:06.112Z,94.35
2023-04-16T21:29:33.745Z,94.22
2023-04-16T21:32:01.636Z,94.33
2023-04-16T21:34:29.554Z,94.22
2023-04-16T21:36:57.244Z,94.30
2023-04-16T21:39:27.503Z,94.32
2023-04-16T21:41:56.395Z,94.37
2023-04-16T21:44:24.161Z,94.32
2023-04-16T21:46:51.884Z,94.29
2023-04-16T21:49:19.661Z,94.45
2023-04-16T21:51:47.455Z,94.57
2023-04-16T21:54:17.814Z,94.55
2023-04-16T21:56:46.148Z,94.70
2023-04-16T21:59:13.783Z,94.62
2023-04-16T22:01:41.504Z,94.76
2023-04-16T22:04:09.810Z,94.57
2023-04-16T22:06:37.908Z,94.44
2023-04-16T22:09:06.628Z,94.54
2023-04-16T22:11:34.292Z,94.62
2023-04-16T22:14:02.973Z,94.66
2023-04-16T22:16:31.029Z,94.74
2023-04-16T22:18:59.214Z,94.81
2023-04-16T22:21:27.398Z,94.94
2023-04-16T22:23:55.402Z,94.94
2023-04-16T22:26:23.097Z,95.01
2023-04-16T22:28:51.419Z,95.01
2023-04-16T22:31:19.276Z,95.24
2023-04-16T22:33:46.927Z,95.32
2023-04-16T22:36:14.716Z,95.41
2023-04-16T22:38:42.334Z,95.64
2023-04-16T22:41:10.143Z,95.64
2023-04-16T22:43:37.856Z,95.71
2023-04-16T22:46:06.760Z,95.98
2023-04-16T22:48:36.291Z,95.87
2023-04-16T22:51:07.318Z,95.93
2023-04-16T22:53:35.837Z,96.01
2023-04-16T22:56:03.529Z,96.02
2023-04-16T22:58:31.263Z,96.00
2023-04-16T23:00:59.540Z,95.97
2023-04-16T23:03:27.484Z,96.01
2023-04-16T23:05:55.335Z,95.99
2023-04-16T23:08:23.145Z,96.13
2023-04-16T23:10:50.954Z,96.20
2023-04-16T23:13:18.614Z,96.25
2023-04-16T23:15:47.225Z,96.31
2023-04-16T23:18:15.428Z,96.40
2023-04-16T23:20:43.152Z,96.32
2023-04-16T23:23:10.822Z,96.37
2023-04-16T23:25:40.627Z,96.36
2023-04-16T23:28:08.281Z,96.25
2023-04-16T23:30:36.084Z,96.32
2023-04-16T23:33:04.601Z,96.33
2023-04-16T23:35:32.453Z,96.38
2023-04-16T23:38:00.529Z,96.38
2023-04-16T23:40:28.356Z,96.39
2023-04-16T23:42:56.051Z,96.53
2023-04-16T23:45:23.820Z,96.55
2023-04-16T23:47:51.723Z,96.48
2023-04-16T23:50:19.620Z,96.39
2023-04-16T23:52:47.368Z,96.48
2023-04-16T23:55:15.164Z,96.56
2023-04-16T23:57:42.912Z,96.65
